Time;durP1;ratioP1;P1;durP2;ratioP2;P2;SDS_P1;SDS_P2;PMS_P1;PMS_P2;Temp;Humidity;BMP_temperature;BMP_pressure;BME280_temperature;BME280_humidity;BME280_pressure;Samples;Min_cycle;Max_cycle;Signal;HPM_P1;HPM_P2
2023/06/23 00:00:33;;;;;;;29.67;15.73;;;;;;;16.80;100.00;101476.66;6219167;23;20019;-76
2023/06/23 00:03:01;;;;;;;36.70;16.33;;;;;;;16.80;100.00;101473.03;6218924;23;20424;-76
2023/06/23 00:05:27;;;;;;;33.55;16.27;;;;;;;16.66;100.00;101478.00;6218678;23;20340;-77
2023/06/23 00:07:53;;;;;;;32.58;16.45;;;;;;;16.60;100.00;101483.25;6218455;23;20008;-77
2023/06/23 00:10:19;;;;;;;31.30;16.20;;;;;;;16.44;100.00;101481.91;6245483;23;20039;-77
2023/06/23 00:12:45;;;;;;;30.40;15.57;;;;;;;16.48;100.00;101488.06;6218718;23;20393;-77
2023/06/23 00:15:15;;;;;;;25.58;15.85;;;;;;;16.47;100.00;101494.59;6193295;23;20016;-77
2023/06/23 00:17:44;;;;;;;42.58;18.30;;;;;;;16.53;100.00;101499.53;6244330;23;20500;-76
2023/06/23 00:20:12;;;;;;;40.17;17.67;;;;;;;16.45;100.00;101504.91;6194076;23;20030;-76
2023/06/23 00:22:38;;;;;;;31.85;19.05;;;;;;;16.47;100.00;101509.28;6218502;23;20065;-77
2023/06/23 00:25:04;;;;;;;36.45;19.20;;;;;;;16.47;100.00;101519.47;6218660;23;20016;-77
2023/06/23 00:27:29;;;;;;;40.10;18.58;;;;;;;16.52;100.00;101525.44;6218772;23;20050;-77
2023/06/23 00:29:55;;;;;;;41.90;20.52;;;;;;;16.47;100.00;101516.69;6193141;23;20422;-77
2023/06/23 00:32:20;;;;;;;40.28;17.80;;;;;;;16.21;100.00;101532.94;6218690;23;20079;-76
2023/06/23 00:34:46;;;;;;;36.35;18.80;;;;;;;16.27;100.00;101540.69;6193336;23;20065;-76
2023/06/23 00:37:11;;;;;;;42.25;18.60;;;;;;;16.28;100.00;101535.00;6244446;23;20016;-76
2023/06/23 00:39:37;;;;;;;45.63;19.77;;;;;;;16.33;100.00;101540.97;6193367;23;20384;-76
2023/06/23 00:42:04;;;;;;;37.63;20.52;;;;;;;16.31;100.00;101544.88;6243735;23;20012;-77
2023/06/23 00:44:30;;;;;;;41.83;20.88;;;;;;;16.37;100.00;101540.69;6217945;23;20004;-77
2023/06/23 00:46:55;;;;;;;54.38;21.38;;;;;;;16.35;100.00;101538.06;6193039;23;20086;-76
2023/06/23 00:49:21;;;;;;;47.90;19.25;;;;;;;16.08;100.00;101524.91;6192885;23;20034;-77
2023/06/23 00:51:46;;;;;;;39.90;18.55;;;;;;;16.14;100.00;101532.63;6192951;23;20012;-77
2023/06/23 00:54:12;;;;;;;44.33;20.48;;;;;;;16.23;100.00;101531.75;6244403;23;20040;-76
2023/06/23 00:56:38;;;;;;;40.80;20.15;;;;;;;16.21;100.00;101544.00;6244218;23;20027;-77
2023/06/23 00:59:05;;;;;;;47.92;21.92;;;;;;;16.34;100.00;101548.22;6168399;23;20008;-76
2023/06/23 01:01:31;;;;;;;49.80;21.25;;;;;;;16.33;100.00;101548.38;6193301;23;20107;-77
2023/06/23 01:04:00;;;;;;;44.63;20.40;;;;;;;16.34;100.00;101545.47;6217625;23;20035;-77
2023/06/23 01:07:10;;;;;;;50.90;22.25;;;;;;;16.37;100.00;101541.56;6166902;23;20419;-77
2023/06/23 01:10:17;;;;;;;43.75;20.20;;;;;;;16.31;100.00;101545.75;6192842;23;20061;-78
2023/06/23 01:12:52;;;;;;;52.88;22.35;;;;;;;16.29;100.00;101553.31;6171292;23;20016;-78
2023/06/23 01:15:31;;;;;;;44.65;21.75;;;;;;;16.20;100.00;101554.19;6244477;23;20004;-77
2023/06/23 01:18:19;;;;;;;50.20;21.85;;;;;;;16.21;100.00;101566.09;6217075;23;20008;-77
2023/06/23 01:20:46;;;;;;;42.45;20.67;;;;;;;16.28;100.00;101572.81;6218242;23;20143;-77
2023/06/23 01:23:45;;;;;;;46.88;22.15;;;;;;;16.27;100.00;101568.31;6243288;23;20423;-77
2023/06/23 01:26:38;;;;;;;47.47;22.77;;;;;;;16.27;100.00;101584.88;6217657;23;20015;-78
2023/06/23 01:29:08;;;;;;;;;;;;;;;16.26;100.00;101589.53;6218732;23;20008;-77
2023/06/23 01:31:46;;;;;;;54.75;23.45;;;;;;;16.13;100.00;101583.38;6218005;23;19903;-78
2023/06/23 01:34:20;;;;;;;59.65;25.38;;;;;;;16.18;100.00;101597.63;6243857;23;20035;-78
2023/06/23 01:36:50;;;;;;;65.47;26.05;;;;;;;16.11;100.00;101607.50;6192310;23;20091;-78
2023/06/23 01:39:19;;;;;;;62.05;26.80;;;;;;;16.00;100.00;101608.47;6244475;23;20423;-77
2023/06/23 01:41:49;;;;;;;56.58;25.92;;;;;;;16.07;100.00;101606.03;6217500;23;20042;-78
2023/06/23 01:44:16;;;;;;;77.18;29.45;;;;;;;16.11;100.00;101604.75;6216923;23;20092;-78
2023/06/23 01:46:46;;;;;;;71.72;28.95;;;;;;;16.04;100.00;101607.19;6217554;23;20065;-78
2023/06/23 01:49:21;;;;;;;66.00;28.85;;;;;;;16.10;100.00;101609.41;6244221;23;20126;-78
2023/06/23 01:51:48;;;;;;;66.88;28.67;;;;;;;15.98;100.00;101602.22;6217633;23;20011;-77
2023/06/23 01:54:15;;;;;;;63.83;30.10;;;;;;;16.07;100.00;101608.78;6191812;23;20007;-78
2023/06/23 01:56:42;;;;;;;74.53;30.63;;;;;;;16.07;100.00;101625.38;6217439;23;20008;-78
2023/06/23 01:59:13;;;;;;;74.70;31.92;;;;;;;15.99;100.00;101626.94;6242820;23;20432;-77
2023/06/23 02:01:40;;;;;;;74.60;31.52;;;;;;;16.05;100.00;101630.16;6217306;23;20008;-77
2023/06/23 02:04:06;;;;;;;77.55;32.33;;;;;;;16.01;100.00;101632.31;6216554;23;20428;-77
2023/06/23 02:06:35;;;;;;;80.72;34.75;;;;;;;16.10;100.00;101637.03;6192339;23;20012;-77
2023/06/23 02:09:04;;;;;;;77.38;32.55;;;;;;;16.01;100.00;101628.69;6192291;23;20008;-77
2023/06/23 02:11:32;;;;;;;79.97;35.15;;;;;;;16.13;100.00;101630.34;6194860;23;20021;-77
2023/06/23 02:13:59;;;;;;;77.35;33.97;;;;;;;16.04;100.00;101625.66;6182320;23;20411;-77
2023/06/23 02:16:27;;;;;;;81.80;34.40;;;;;;;15.99;100.00;101629.69;6207751;23;20009;-77
2023/06/23 02:18:55;;;;;;;70.70;32.20;;;;;;;16.02;100.00;101630.44;6157892;23;20468;-78
2023/06/23 02:21:26;;;;;;;85.05;35.60;;;;;;;16.01;100.00;101642.50;6157091;23;20329;-77
2023/06/23 02:23:53;;;;;;;80.57;34.80;;;;;;;15.90;100.00;101638.81;6157263;23;20013;-78
2023/06/23 02:26:19;;;;;;;92.72;36.05;;;;;;;15.91;100.00;101643.31;6183885;23;20039;-78
2023/06/23 02:28:49;;;;;;;93.03;36.92;;;;;;;15.92;100.00;101642.31;6182246;23;20021;-78
2023/06/23 02:31:21;;;;;;;92.35;37.22;;;;;;;15.92;100.00;101636.81;6182796;23;20063;-78
2023/06/23 02:33:47;;;;;;;95.80;39.83;;;;;;;15.90;100.00;101647.09;6181612;23;20080;-78
2023/06/23 02:36:19;;;;;;;85.75;37.78;;;;;;;15.78;100.00;101645.44;6181331;23;20037;-77
2023/06/23 02:38:47;;;;;;;87.80;37.35;;;;;;;15.74;100.00;101647.56;6182121;23;20013;-77
2023/06/23 02:41:15;;;;;;;82.32;36.47;;;;;;;15.71;100.00;101652.47;6156397;23;20059;-78
2023/06/23 02:43:50;;;;;;;110.43;40.67;;;;;;;15.83;100.00;101654.19;6181272;23;20013;-77
2023/06/23 02:46:20;;;;;;;94.10;39.53;;;;;;;15.84;100.00;101674.38;6206934;23;20063;-77
2023/06/23 02:48:48;;;;;;;101.53;40.08;;;;;;;15.80;100.00;101674.66;6206378;23;20009;-77
2023/06/23 02:51:18;;;;;;;98.75;39.45;;;;;;;15.82;100.00;101666.22;6180249;23;20009;-76
2023/06/23 02:53:54;;;;;;;85.72;39.60;;;;;;;15.93;100.00;101681.84;6156342;23;20084;-77
2023/06/23 02:56:25;;;;;;;107.15;44.10;;;;;;;15.90;100.00;101683.00;6181713;23;20012;-77
2023/06/23 02:58:57;;;;;;;99.35;41.25;;;;;;;15.71;100.00;101682.84;6182318;23;20088;-77
2023/06/23 03:01:26;;;;;;;109.93;41.57;;;;;;;15.75;100.00;101690.72;6181257;23;20009;-77
2023/06/23 03:03:54;;;;;;;89.50;39.20;;;;;;;15.76;100.00;101695.28;6182566;23;20051;-77
2023/06/23 03:06:22;;;;;;;90.65;40.70;;;;;;;15.81;100.00;101694.88;6182140;23;20009;-77
2023/06/23 03:08:49;;;;;;;101.88;44.28;;;;;;;15.78;100.00;101692.38;6182855;23;20005;-76
2023/06/23 03:11:18;;;;;;;101.43;42.38;;;;;;;15.88;100.00;101697.97;6186310;23;20017;-77
2023/06/23 03:13:44;;;;;;;105.10;44.03;;;;;;;15.73;100.00;101692.75;6183786;23;20017;-77
2023/06/23 03:16:22;;;;;;;108.38;44.95;;;;;;;15.87;100.00;101696.22;6183960;23;20063;-77
2023/06/23 03:19:10;;;;;;;95.00;42.90;;;;;;;15.74;100.00;101702.78;6158268;23;20036;-76
2023/06/23 03:21:38;;;;;;;103.05;43.80;;;;;;;15.69;100.00;101699.56;6158081;23;20040;-76
2023/06/23 03:24:08;;;;;;;113.05;43.67;;;;;;;15.66;100.00;101710.88;6184506;23;20016;-75
2023/06/23 03:26:37;;;;;;;118.43;48.00;;;;;;;15.65;100.00;101702.72;6183703;23;20005;-76
2023/06/23 03:29:07;;;;;;;124.15;46.35;;;;;;;15.59;100.00;101706.88;6158935;23;20009;-76
2023/06/23 03:31:37;;;;;;;111.88;45.97;;;;;;;15.53;100.00;101710.19;6184940;23;20135;-76
2023/06/23 03:34:02;;;;;;;119.10;48.75;;;;;;;15.71;100.00;101715.97;6158651;23;20341;-77
2023/06/23 03:36:28;;;;;;;128.02;48.95;;;;;;;15.56;100.00;101721.84;6182963;23;20039;-76
2023/06/23 03:39:18;;;;;;;143.10;53.95;;;;;;;15.62;100.00;101726.78;6158088;23;20095;-77
2023/06/23 03:41:44;;;;;;;151.52;55.50;;;;;;;15.58;100.00;101730.84;6159206;23;20005;-77
2023/06/23 03:44:29;;;;;;;141.90;55.30;;;;;;;15.52;100.00;101738.78;6183764;23;20384;-77
2023/06/23 03:47:03;;;;;;;135.70;52.88;;;;;;;15.64;100.00;101734.94;6183863;23;20020;-77
2023/06/23 03:49:35;;;;;;;137.30;54.72;;;;;;;15.58;100.00;101730.00;6185712;23;20060;-76
2023/06/23 03:52:04;;;;;;;149.87;57.27;;;;;;;15.56;100.00;101740.25;6182519;23;20020;-76
2023/06/23 03:54:31;;;;;;;153.13;55.13;;;;;;;15.55;100.00;101744.91;6159297;23;20020;-77
2023/06/23 03:56:59;;;;;;;144.15;57.00;;;;;;;15.60;100.00;101739.00;6183634;23;20009;-77
2023/06/23 03:59:28;;;;;;;181.30;62.50;;;;;;;15.67;100.00;101744.88;6183436;23;20084;-76
2023/06/23 04:01:56;;;;;;;165.10;63.03;;;;;;;15.58;100.00;101735.50;6208685;23;20440;-76
2023/06/23 04:04:23;;;;;;;164.82;60.22;;;;;;;15.52;100.00;101739.66;6182237;23;20005;-77
2023/06/23 04:06:51;;;;;;;151.43;59.55;;;;;;;15.50;100.00;101740.81;6158662;23;20009;-77
2023/06/23 04:09:24;;;;;;;188.43;65.45;;;;;;;15.57;100.00;101755.81;6184924;23;20398;-77
2023/06/23 04:11:52;;;;;;;218.30;74.28;;;;;;;15.64;100.00;101746.00;6222422;23;20023;-78
2023/06/23 04:14:19;;;;;;;195.80;68.85;;;;;;;15.53;100.00;101746.06;6218237;23;20036;-76
2023/06/23 04:16:48;;;;;;;212.25;72.55;;;;;;;15.68;100.00;101739.22;6219288;23;20015;-77
2023/06/23 04:19:16;;;;;;;208.13;72.28;;;;;;;15.69;100.00;101743.75;6217991;23;20012;-77
2023/06/23 04:21:43;;;;;;;218.85;75.68;;;;;;;15.75;100.00;101751.47;6218494;23;20027;-77
2023/06/23 04:24:10;;;;;;;216.35;75.72;;;;;;;15.77;100.00;101752.25;6218315;23;20347;-77
2023/06/23 04:26:37;;;;;;;218.13;74.90;;;;;;;15.79;100.00;101746.59;6219329;23;20019;-77
2023/06/23 04:29:06;;;;;;;226.40;76.93;;;;;;;15.71;100.00;101763.81;6246119;23;20034;-77
2023/06/23 04:31:34;;;;;;;243.18;78.38;;;;;;;15.74;100.00;101766.31;6245313;23;20011;-77
2023/06/23 04:33:59;;;;;;;273.02;82.78;;;;;;;15.86;100.00;101780.97;6216843;23;20008;-77
2023/06/23 04:36:34;;;;;;;268.27;85.63;;;;;;;16.03;100.00;101775.84;6192323;23;20450;-77
2023/06/23 04:39:27;;;;;;;241.98;85.35;;;;;;;15.97;100.00;101777.25;6245221;23;20008;-77
2023/06/23 04:41:56;;;;;;;230.27;79.35;;;;;;;16.12;100.00;101786.97;6193235;23;20015;-77
2023/06/23 04:44:27;;;;;;;252.77;84.10;;;;;;;15.93;100.00;101778.53;6217121;23;20087;-76
2023/06/23 04:46:57;;;;;;;267.58;85.22;;;;;;;16.03;100.00;101785.00;6245016;23;20004;-76
2023/06/23 04:49:27;;;;;;;261.60;89.47;;;;;;;15.91;100.00;101788.84;6243814;23;20011;-77
2023/06/23 04:51:56;;;;;;;277.92;84.85;;;;;;;15.90;100.00;101796.22;6245049;23;20031;-77
2023/06/23 04:54:26;;;;;;;268.40;88.03;;;;;;;15.97;100.00;101791.94;6192032;23;20086;-76
2023/06/23 04:57:01;;;;;;;270.73;85.55;;;;;;;16.17;100.00;101798.47;6217746;23;20435;-77
2023/06/23 04:59:32;;;;;;;275.77;85.97;;;;;;;16.27;100.00;101801.31;6244148;23;20020;-77
2023/06/23 05:02:00;;;;;;;308.90;92.97;;;;;;;16.26;100.00;101793.16;6242470;23;20137;-77
2023/06/23 05:04:26;;;;;;;262.38;88.40;;;;;;;16.21;100.00;101795.44;6192766;23;20018;-76
2023/06/23 05:06:53;;;;;;;287.80;89.20;;;;;;;16.30;100.00;101801.03;6244522;23;20095;-76
2023/06/23 05:09:21;;;;;;;295.38;91.20;;;;;;;16.29;100.00;101799.28;6192924;23;20016;-77
2023/06/23 05:11:48;;;;;;;264.52;88.68;;;;;;;16.39;100.00;101807.63;6217818;23;20022;-76
2023/06/23 05:14:16;;;;;;;284.42;89.10;;;;;;;16.43;100.00;101808.22;6218076;23;20044;-76
2023/06/23 05:16:43;;;;;;;290.38;90.63;;;;;;;16.58;100.00;101817.03;6217409;23;20054;-76
2023/06/23 05:19:11;;;;;;;288.77;88.22;;;;;;;16.71;100.00;101817.72;6244177;23;20073;-77
2023/06/23 05:21:39;;;;;;;284.25;87.25;;;;;;;16.81;100.00;101818.63;6243856;23;20424;-76
2023/06/23 05:24:08;;;;;;;278.27;87.45;;;;;;;17.08;100.00;101820.78;6244956;23;20007;-76
2023/06/23 05:26:35;;;;;;;273.35;85.65;;;;;;;17.19;100.00;101824.50;6244304;23;20327;-77
2023/06/23 05:29:06;;;;;;;243.70;82.18;;;;;;;17.41;100.00;101824.28;6217044;23;20026;-77
2023/06/23 05:31:36;;;;;;;271.23;85.25;;;;;;;17.50;100.00;101829.97;6217980;23;20008;-77
2023/06/23 05:34:04;;;;;;;252.30;83.28;;;;;;;17.65;100.00;101828.53;6242477;23;20015;-76
2023/06/23 05:36:32;;;;;;;244.23;80.80;;;;;;;17.67;100.00;101828.38;6217900;23;20004;-77
2023/06/23 05:38:59;;;;;;;222.70;76.13;;;;;;;17.77;100.00;101830.16;6216967;23;20087;-77
2023/06/23 05:41:25;;;;;;;229.85;77.50;;;;;;;18.10;100.00;101830.75;6192172;23;20054;-76
2023/06/23 05:43:50;;;;;;;226.48;76.65;;;;;;;18.23;100.00;101835.13;6216842;23;20012;-77
2023/06/23 05:46:19;;;;;;;200.32;71.10;;;;;;;18.27;100.00;101840.22;6218589;23;20012;-75
2023/06/23 05:48:51;;;;;;;224.05;77.05;;;;;;;18.28;100.00;101838.31;6244274;23;20008;-77
2023/06/23 05:51:23;;;;;;;204.13;67.80;;;;;;;18.92;100.00;101837.59;6216582;23;20008;-76
2023/06/23 05:53:54;;;;;;;230.32;74.60;;;;;;;18.71;100.00;101840.56;6215777;23;20004;-76
2023/06/23 05:56:36;;;;;;;226.63;73.68;;;;;;;18.50;100.00;101846.31;6244786;23;20010;-77
2023/06/23 05:59:13;;;;;;;241.38;80.15;;;;;;;18.79;100.00;101839.81;6189646;23;20126;-76
2023/06/23 06:01:42;;;;;;;228.35;73.95;;;;;;;19.00;100.00;101847.94;6216388;23;20012;-77
2023/06/23 06:04:12;;;;;;;238.63;78.43;;;;;;;18.98;100.00;101844.44;6216860;23;20011;-77
2023/06/23 06:06:40;;;;;;;223.02;78.38;;;;;;;19.12;100.00;101851.41;6191339;23;20368;-77
2023/06/23 06:09:11;;;;;;;197.68;68.95;;;;;;;19.40;100.00;101846.72;6243880;23;20046;-77
2023/06/23 06:11:43;;;;;;;204.15;74.18;;;;;;;19.57;100.00;101856.09;6172866;23;20024;-76
2023/06/23 06:14:10;;;;;;;226.93;74.23;;;;;;;19.94;100.00;101855.16;6155211;23;20028;-77
2023/06/23 06:16:37;;;;;;;192.10;67.22;;;;;;;19.60;100.00;101854.94;6205169;23;20250;-78
2023/06/23 06:19:03;;;;;;;198.65;69.72;;;;;;;19.64;100.00;101862.81;6156403;23;20008;-77
2023/06/23 06:21:32;;;;;;;185.65;65.32;;;;;;;19.97;100.00;101852.06;6184897;23;20013;-78
2023/06/23 06:23:59;;;;;;;196.32;67.50;;;;;;;;;;6184130;23;20016;-78
2023/06/23 06:26:26;;;;;;;216.70;72.32;;;;;;;20.19;100.00;101874.84;6183154;23;20329;-78
2023/06/23 06:28:56;;;;;;;197.93;69.53;;;;;;;20.39;100.00;101870.84;6181081;23;20037;-79
2023/06/23 06:31:23;;;;;;;209.07;69.93;;;;;;;20.09;100.00;101877.72;6207191;23;20009;-79
2023/06/23 06:33:52;;;;;;;204.38;69.97;;;;;;;20.63;100.00;101869.34;6156830;23;20020;-78
2023/06/23 06:36:20;;;;;;;177.63;64.53;;;;;;;21.22;100.00;101880.66;6156635;23;20080;-78
2023/06/23 06:38:48;;;;;;;186.15;66.45;;;;;;;20.99;100.00;101873.91;6181336;23;20464;-77
2023/06/23 06:41:15;;;;;;;182.20;67.43;;;;;;;21.38;100.00;101885.44;6182237;23;20044;-77
2023/06/23 06:43:40;;;;;;;193.57;64.30;;;;;;;21.40;100.00;101882.50;6184156;23;20021;-77
2023/06/23 06:46:06;;;;;;;170.23;60.20;;;;;;;21.40;100.00;101888.06;6183485;23;20075;-77
2023/06/23 06:48:33;;;;;;;185.38;65.38;;;;;;;21.11;100.00;101890.16;6180326;23;20009;-77
2023/06/23 06:50:59;;;;;;;149.30;56.47;;;;;;;21.90;100.00;101900.25;6185547;23;20094;-77
2023/06/23 06:53:26;;;;;;;162.90;57.67;;;;;;;21.34;100.00;101899.88;6185081;23;20009;-76
2023/06/23 06:55:53;;;;;;;180.27;63.53;;;;;;;21.32;100.00;101897.25;6158936;23;20016;-77
2023/06/23 06:58:19;;;;;;;149.10;56.20;;;;;;;21.01;100.00;101900.56;6184791;23;20461;-77
2023/06/23 07:00:45;;;;;;;161.40;59.92;;;;;;;20.86;100.00;101900.28;6158646;23;20096;-77
2023/06/23 07:03:13;;;;;;;156.25;58.17;;;;;;;20.82;100.00;101898.84;6184542;23;20009;-77
2023/06/23 07:05:39;;;;;;;161.25;59.35;;;;;;;20.18;100.00;101909.25;6184161;23;20017;-77
2023/06/23 07:08:05;;;;;;;156.43;57.15;;;;;;;20.62;100.00;101908.44;6183142;23;20487;-76
2023/06/23 07:10:32;;;;;;;162.38;60.03;;;;;;;20.09;100.00;101913.88;6185285;23;20016;-77
2023/06/23 07:12:57;;;;;;;155.50;56.92;;;;;;;20.12;100.00;101910.78;6158875;23;20095;-77
2023/06/23 07:15:23;;;;;;;182.57;62.42;;;;;;;20.83;100.00;101906.19;6185278;23;20056;-78
2023/06/23 07:17:48;;;;;;;153.35;57.38;;;;;;;20.75;100.00;101918.13;6186359;23;20031;-77
2023/06/23 07:20:14;;;;;;;148.90;59.13;;;;;;;21.50;100.00;101919.47;6184417;23;20009;-78
2023/06/23 07:22:39;;;;;;;169.88;61.58;;;;;;;21.99;100.00;101918.78;6158964;23;20041;-77
2023/06/23 07:25:05;;;;;;;136.45;54.97;;;;;;;22.30;100.00;101929.28;6184272;23;20080;-76
2023/06/23 07:27:30;;;;;;;133.45;49.60;;;;;;;21.49;100.00;101937.22;6184905;23;20378;-76
2023/06/23 07:29:58;;;;;;;126.70;49.85;;;;;;;22.19;100.00;101939.72;6159344;23;20013;-77
2023/06/23 07:32:24;;;;;;;115.63;46.92;;;;;;;23.17;100.00;101935.22;6158964;23;20013;-76
2023/06/23 07:34:49;;;;;;;122.43;49.38;;;;;;;23.31;100.00;101942.84;6134207;23;20120;-77
2023/06/23 07:37:15;;;;;;;140.48;53.28;;;;;;;22.91;100.00;101941.88;6185823;23;20378;-76
2023/06/23 07:39:40;;;;;;;132.07;51.25;;;;;;;23.04;100.00;101941.34;6185135;23;20013;-77
2023/06/23 07:42:06;;;;;;;116.20;45.35;;;;;;;24.00;100.00;101932.97;6159251;23;20013;-77
2023/06/23 07:44:31;;;;;;;110.03;47.22;;;;;;;23.54;100.00;101939.28;6183593;23;20015;-77
2023/06/23 07:47:00;;;;;;;107.13;45.22;;;;;;;23.39;100.00;101932.72;6157393;23;20012;-77
2023/06/23 07:49:26;;;;;;;109.53;46.10;;;;;;;24.77;100.00;101934.88;6185588;23;20013;-75
2023/06/23 07:51:52;;;;;;;108.63;44.55;;;;;;;23.58;100.00;101932.28;6186171;23;20017;-78
2023/06/23 07:54:17;;;;;;;121.30;47.90;;;;;;;23.47;100.00;101938.28;6158968;23;20092;-77
2023/06/23 07:56:42;;;;;;;87.88;41.80;;;;;;;24.26;100.00;101940.16;6134345;23;20059;-77
2023/06/23 07:59:08;;;;;;;87.75;40.22;;;;;;;24.45;100.00;101941.59;6134166;23;20009;-77
2023/06/23 08:01:33;;;;;;;99.82;40.90;;;;;;;24.73;100.00;101942.78;6183056;23;20013;-78
2023/06/23 08:04:02;;;;;;;99.95;41.83;;;;;;;24.46;100.00;101944.19;6183245;23;20329;-78
2023/06/23 08:06:28;;;;;;;100.93;45.03;;;;;;;24.59;100.00;101943.63;6185209;23;20031;-78
2023/06/23 08:08:53;;;;;;;99.03;42.28;;;;;;;24.09;100.00;101943.09;6184084;23;20017;-78
2023/06/23 08:11:18;;;;;;;83.82;37.78;;;;;;;24.56;100.00;101949.59;6202713;23;20047;-78
2023/06/23 08:13:45;;;;;;;78.43;35.88;;;;;;;25.89;97.00;101941.50;6217467;23;20016;-78
2023/06/23 08:16:19;;;;;;;78.80;37.47;;;;;;;25.33;98.83;101953.28;6193905;23;20008;-77
2023/06/23 08:18:48;;;;;;;96.22;42.72;;;;;;;25.08;100.00;101951.56;6193774;23;20012;-77
2023/06/23 08:21:13;;;;;;;83.07;38.13;;;;;;;24.75;100.00;101945.41;6168126;23;20016;-77
2023/06/23 08:23:40;;;;;;;68.10;33.13;;;;;;;24.11;100.00;101951.28;6193447;23;20499;-77
2023/06/23 08:26:05;;;;;;;69.70;33.03;;;;;;;24.20;100.00;101951.06;6194152;23;20023;-77
2023/06/23 08:28:34;;;;;;;62.42;30.35;;;;;;;26.55;88.05;101952.69;6218099;23;20016;-77
2023/06/23 08:31:02;;;;;;;68.25;30.85;;;;;;;25.56;90.37;101955.97;6218735;23;20077;-78
2023/06/23 08:33:28;;;;;;;73.35;33.90;;;;;;;25.09;96.34;101956.13;6218433;23;20440;-76
2023/06/23 08:35:53;;;;;;;82.47;39.75;;;;;;;25.48;97.42;101952.22;6217855;23;20004;-77
2023/06/23 08:38:19;;;;;;;81.57;40.97;;;;;;;25.04;100.00;101966.13;6218797;23;20066;-78
2023/06/23 08:40:47;;;;;;;94.90;41.47;;;;;;;24.97;100.00;101954.81;6218389;23;20069;-79
2023/06/23 08:43:12;;;;;;;91.07;44.47;;;;;;;25.25;100.00;101955.09;6217717;23;20039;-78
2023/06/23 08:45:44;;;;;;;90.72;41.20;;;;;;;25.81;100.00;101960.22;6245362;23;20004;-78
2023/06/23 08:48:16;;;;;;;80.10;40.42;;;;;;;25.27;100.00;101966.13;6244550;23;20557;-78
2023/06/23 08:50:45;;;;;;;97.55;45.15;;;;;;;25.07;100.00;101963.84;6244975;23;20019;-79
2023/06/23 08:53:11;;;;;;;94.15;41.70;;;;;;;24.93;100.00;101961.88;6244970;23;20404;-79
2023/06/23 08:55:36;;;;;;;88.90;41.78;;;;;;;25.23;100.00;101974.00;6219125;23;20031;-78
2023/06/23 08:58:02;;;;;;;85.40;41.35;;;;;;;23.96;100.00;101977.25;6218562;23;20012;-78
2023/06/23 09:00:47;;;;;;;72.00;37.75;;;;;;;24.42;100.00;101992.38;6217843;23;20004;-78
2023/06/23 09:03:15;;;;;;;70.88;36.47;;;;;;;24.54;96.68;101985.28;6192794;23;20344;-78
2023/06/23 09:05:44;;;;;;;65.88;32.45;;;;;;;24.90;97.67;101988.34;6218147;23;20012;-77
2023/06/23 09:08:10;;;;;;;55.25;28.58;;;;;;;25.26;94.06;101983.97;6168311;23;20069;-78
2023/06/23 09:10:36;;;;;;;64.90;30.55;;;;;;;25.20;93.06;101998.75;6218554;23;20050;-79
2023/06/23 09:13:27;;;;;;;69.38;32.50;;;;;;;25.01;94.76;102002.97;6244515;23;20016;-78
2023/06/23 09:15:53;;;;;;;56.53;28.35;;;;;;;25.38;89.92;102010.50;6245589;23;20000;-79
2023/06/23 09:18:20;;;;;;;61.00;30.00;;;;;;;25.77;88.40;102009.34;6245015;23;20016;-77
2023/06/23 09:20:50;;;;;;;52.22;27.40;;;;;;;25.88;88.27;102013.63;6193406;23;20356;-78
2023/06/23 09:23:18;;;;;;;54.35;24.13;;;;;;;25.87;83.94;102006.25;6217987;23;20008;-78
2023/06/23 09:25:51;;;;;;;42.38;20.98;;;;;;;25.85;85.38;102017.69;6244452;23;20008;-77
2023/06/23 09:28:21;;;;;;;46.20;22.75;;;;;;;26.13;86.05;102017.00;6218226;23;20332;-78
2023/06/23 09:30:47;;;;;;;43.25;22.48;;;;;;;26.68;80.38;102013.75;6217853;23;20004;-77
2023/06/23 09:33:12;;;;;;;52.47;27.38;;;;;;;25.16;84.63;102019.84;6218198;23;20012;-77
2023/06/23 09:35:46;;;;;;;63.85;29.15;;;;;;;25.95;83.54;102010.91;6244854;23;20313;-77
2023/06/23 09:38:12;;;;;;;67.22;31.98;;;;;;;25.66;88.04;102018.25;6217347;23;20004;-77
2023/06/23 09:40:38;;;;;;;59.78;29.50;;;;;;;25.06;84.72;102023.75;6191462;23;20012;-77
2023/06/23 09:43:03;;;;;;;59.60;26.88;;;;;;;25.58;83.88;102021.16;6244456;23;20344;-76
2023/06/23 09:45:30;;;;;;;54.20;24.30;;;;;;;25.59;84.24;102026.56;6245023;23;20112;-78
2023/06/23 09:47:55;;;;;;;69.97;23.38;;;;;;;26.20;86.09;102025.50;6217522;23;20039;-78
2023/06/23 09:50:22;;;;;;;50.40;21.50;;;;;;;25.78;80.90;102027.94;6217616;23;20047;-77
2023/06/23 09:52:59;;;;;;;39.22;17.67;;;;;;;26.08;77.47;102022.34;6217365;23;20435;-78
2023/06/23 09:55:24;;;;;;;43.38;18.08;;;;;;;27.04;68.73;102032.50;6192239;23;20030;-77
2023/06/23 09:57:50;;;;;;;38.55;18.67;;;;;;;27.18;72.89;102025.91;6166672;23;20047;-77
2023/06/23 10:00:16;;;;;;;48.75;22.08;;;;;;;27.04;74.99;102027.75;6217424;23;20023;-76
2023/06/23 10:02:41;;;;;;;41.53;21.73;;;;;;;26.94;78.01;102022.47;6217540;23;20086;-77
2023/06/23 10:05:07;;;;;;;51.45;24.10;;;;;;;26.89;81.10;102024.13;6217550;23;20442;-77
2023/06/23 10:07:33;;;;;;;53.58;26.23;;;;;;;26.88;80.50;102022.41;6167437;23;20348;-77
2023/06/23 10:10:01;;;;;;;50.45;25.85;;;;;;;26.80;79.06;102028.16;6192320;23;20058;-77
2023/06/23 10:12:28;;;;;;;54.58;26.35;;;;;;;26.24;83.56;102015.63;6192308;23;20008;-78
2023/06/23 10:14:56;;;;;;;55.03;24.40;;;;;;;26.25;76.23;102020.16;6244227;23;20008;-78
2023/06/23 10:17:22;;;;;;;39.95;19.75;;;;;;;26.66;75.84;102027.16;6217093;23;20330;-78
2023/06/23 10:19:48;;;;;;;44.58;19.85;;;;;;;27.46;71.15;102025.09;6217590;23;20039;-78
2023/06/23 10:22:18;;;;;;;44.80;21.25;;;;;;;27.34;69.52;102027.59;6217425;23;20065;-78
2023/06/23 10:25:08;;;;;;;38.45;19.48;;;;;;;27.30;72.47;102027.13;6244547;23;20004;-78
2023/06/23 10:27:36;;;;;;;51.70;24.30;;;;;;;26.30;77.99;102022.38;6217603;23;20012;-78
2023/06/23 10:30:03;;;;;;;56.22;24.60;;;;;;;26.72;80.39;102030.03;6217415;23;20006;-78
2023/06/23 10:32:30;;;;;;;60.08;25.85;;;;;;;26.68;79.52;102023.09;6217698;23;20019;-78
2023/06/23 10:34:59;;;;;;;52.72;24.52;;;;;;;27.01;78.89;102027.28;6244170;23;20016;-78
2023/06/23 10:37:27;;;;;;;53.30;25.55;;;;;;;26.99;79.72;102027.50;6216627;23;20008;-77
2023/06/23 10:39:59;;;;;;;48.72;24.45;;;;;;;26.75;81.67;102028.75;6190359;23;20012;-77
2023/06/23 10:42:28;;;;;;;49.35;23.55;;;;;;;26.53;79.44;102023.09;6191797;23;20057;-77
2023/06/23 10:44:54;;;;;;;47.70;23.73;;;;;;;26.99;77.03;102033.13;6217652;23;20004;-78
2023/06/23 10:47:20;;;;;;;38.88;20.83;;;;;;;26.80;74.17;102026.22;6244466;23;20008;-77
2023/06/23 10:49:48;;;;;;;44.90;20.23;;;;;;;27.18;73.86;102025.06;6167755;23;20020;-77
2023/06/23 10:52:14;;;;;;;44.05;20.10;;;;;;;26.62;77.17;102022.97;6244509;23;20303;-77
2023/06/23 10:54:42;;;;;;;40.67;21.27;;;;;;;26.17;77.84;102032.41;6217328;23;20016;-76
2023/06/23 10:57:10;;;;;;;41.33;19.25;;;;;;;26.66;80.12;102029.94;6192237;23;20008;-77
2023/06/23 10:59:41;;;;;;;42.08;18.85;;;;;;;26.71;74.70;102021.78;6218347;23;20352;-77
2023/06/23 11:02:08;;;;;;;38.80;18.65;;;;;;;27.37;73.59;102030.00;6218107;23;20023;-77
2023/06/23 11:04:41;;;;;;;39.47;20.40;;;;;;;26.90;73.28;102023.06;6217724;23;20020;-77
2023/06/23 11:07:14;;;;;;;43.17;18.52;;;;;;;26.60;78.45;102015.59;6244381;23;20435;-77